Time;durP1;ratioP1;P1;durP2;ratioP2;P2;SDS_P1;SDS_P2;PMS_P1;PMS_P2;Temp;Humidity;BMP_temperature;BMP_pressure;BME280_temperature;BME280_humidity;BME280_pressure;Samples;Min_cycle;Max_cycle;Signal;HPM_P1;HPM_P2
2022/04/14 00:01:53;;;;;;;19.80;12.93;;;16.60;99.90;;;;;;5022323;28;20459;-70
2022/04/14 00:04:19;;;;;;;16.00;12.37;;;16.60;99.90;;;;;;5015651;28;20225;-68
2022/04/14 00:06:44;;;;;;;13.93;11.33;;;16.60;99.90;;;;;;5012352;28;20455;-69
2022/04/14 00:09:10;;;;;;;17.47;12.10;;;16.50;99.90;;;;;;5012578;28;20283;-69
2022/04/14 00:11:36;;;;;;;15.57;11.60;;;16.50;99.90;;;;;;5016852;28;20220;-69
2022/04/14 00:14:02;;;;;;;17.80;12.87;;;16.50;99.90;;;;;;5025049;28;20220;-69
2022/04/14 00:16:27;;;;;;;14.57;12.10;;;16.50;99.90;;;;;;5019538;28;20249;-69
2022/04/14 00:18:54;;;;;;;23.33;11.90;;;16.50;99.90;;;;;;5014442;28;20300;-68
2022/04/14 00:21:20;;;;;;;13.13;11.60;;;16.40;99.90;;;;;;5014186;28;20327;-70
2022/04/14 00:23:46;;;;;;;19.93;12.30;;;16.40;99.90;;;;;;5025488;28;20475;-69
2022/04/14 00:26:11;;;;;;;16.23;11.50;;;16.40;99.90;;;;;;5024814;28;20562;-69
2022/04/14 00:28:37;;;;;;;21.30;12.40;;;16.40;99.90;;;;;;5021271;28;20681;-69
2022/04/14 00:31:04;;;;;;;19.47;12.60;;;16.30;99.90;;;;;;5013623;28;20231;-70
2022/04/14 00:33:30;;;;;;;14.60;11.37;;;16.30;99.90;;;;;;5008517;28;20236;-70
2022/04/14 00:35:56;;;;;;;16.83;12.37;;;16.30;99.90;;;;;;5007428;28;20885;-68
2022/04/14 00:38:22;;;;;;;21.87;13.33;;;16.20;99.90;;;;;;5027371;28;20482;-70
2022/04/14 00:40:49;;;;;;;15.80;12.53;;;16.20;99.90;;;;;;5018681;28;20236;-70
2022/04/14 00:43:16;;;;;;;14.77;11.80;;;16.20;99.90;;;;;;5012190;28;20287;-70
2022/04/14 00:45:42;;;;;;;14.07;11.43;;;16.20;99.90;;;;;;5002970;28;20447;-69
2022/04/14 00:48:08;;;;;;;15.63;12.60;;;16.20;99.90;;;;;;5029320;28;20483;-69
2022/04/14 00:50:34;;;;;;;19.47;11.70;;;16.10;99.90;;;;;;5031340;28;20487;-69
2022/04/14 00:53:00;;;;;;;17.33;11.33;;;16.10;99.90;;;;;;5033020;28;20228;-69
2022/04/14 00:55:26;;;;;;;17.47;10.90;;;16.10;99.90;;;;;;5032608;28;20225;-69
2022/04/14 00:57:51;;;;;;;16.37;12.67;;;16.10;99.90;;;;;;5031585;28;20237;-70
2022/04/14 01:00:17;;;;;;;20.37;14.30;;;16.10;99.90;;;;;;5029941;28;20236;-69
2022/04/14 01:02:43;;;;;;;18.57;12.87;;;16.10;99.90;;;;;;5012318;28;20693;-69
2022/04/14 01:05:10;;;;;;;18.23;12.27;;;16.10;99.90;;;;;;5021474;28;20236;-70
2022/04/14 01:07:37;;;;;;;18.37;14.63;;;16.00;99.90;;;;;;5026228;28;20478;-71
2022/04/14 01:10:04;;;;;;;16.53;13.23;;;16.10;99.90;;;;;;5024322;28;20460;-68
2022/04/14 01:12:31;;;;;;;21.87;13.77;;;16.00;99.90;;;;;;4993319;28;20468;-69
2022/04/14 01:14:57;;;;;;;20.10;13.70;;;16.00;99.90;;;;;;5012819;28;20499;-68
2022/04/14 01:17:23;;;;;;;21.57;12.77;;;16.00;99.90;;;;;;5028292;28;21021;-68
2022/04/14 01:19:48;;;;;;;18.70;13.90;;;16.00;99.90;;;;;;5026501;28;20500;-69
2022/04/14 01:22:27;;;;;;;21.53;12.70;;;16.00;99.90;;;;;;5017566;28;20308;-68
2022/04/14 01:24:58;;;;;;;17.50;12.47;;;15.90;99.90;;;;;;4994638;28;20244;-69
2022/04/14 01:27:24;;;;;;;21.63;13.60;;;15.90;99.90;;;;;;5019693;28;20992;-70
2022/04/14 01:29:52;;;;;;;19.60;14.70;;;15.90;99.90;;;;;;5016415;28;20452;-72
2022/04/14 01:32:21;;;;;;;17.70;12.90;;;15.90;99.90;;;;;;5011874;28;20452;-69
2022/04/14 01:34:48;;;;;;;20.13;13.50;;;15.90;99.90;;;;;;5012943;28;20536;-69
2022/04/14 01:37:14;;;;;;;16.87;13.40;;;15.90;99.90;;;;;;5007547;28;20468;-69
2022/04/14 01:39:40;;;;;;;17.37;13.43;;;15.90;99.90;;;;;;5018743;28;20472;-69
2022/04/14 01:42:06;;;;;;;24.67;13.27;;;15.80;99.90;;;;;;5032260;28;20590;-68
2022/04/14 01:44:32;;;;;;;22.00;13.97;;;15.80;99.90;;;;;;5030077;28;20455;-69
2022/04/14 01:46:57;;;;;;;16.80;13.43;;;15.80;99.90;;;;;;5025553;28;20762;-69
2022/04/14 01:49:23;;;;;;;18.50;13.33;;;15.80;99.90;;;;;;5031320;28;20226;-70
2022/04/14 01:51:49;;;;;;;19.07;14.03;;;15.80;99.90;;;;;;5022808;28;20229;-70
2022/04/14 01:54:15;;;;;;;27.10;14.47;;;15.80;99.90;;;;;;5010396;28;20703;-69
2022/04/14 01:56:41;;;;;;;17.93;12.93;;;15.70;99.90;;;;;;5017964;28;20240;-71
2022/04/14 01:59:08;;;;;;;18.20;13.10;;;15.70;99.90;;;;;;5017748;28;20462;-70
2022/04/14 02:01:34;;;;;;;17.50;12.53;;;15.80;99.90;;;;;;5023712;28;20493;-69
2022/04/14 02:04:02;;;;;;;19.80;14.00;;;15.70;99.90;;;;;;5013996;28;20971;-69
2022/04/14 02:06:28;;;;;;;19.53;13.67;;;15.70;99.90;;;;;;5028540;28;20323;-71
2022/04/14 02:08:54;;;;;;;19.20;12.90;;;15.70;99.90;;;;;;5030061;28;20531;-70
2022/04/14 02:11:20;;;;;;;14.63;12.90;;;15.70;99.90;;;;;;5022196;28;21036;-70
2022/04/14 02:13:46;;;;;;;17.97;12.30;;;15.80;99.90;;;;;;5009985;28;20225;-67
2022/04/14 02:16:11;;;;;;;18.10;12.70;;;15.80;99.90;;;;;;5012621;28;20221;-68
2022/04/14 02:18:37;;;;;;;15.80;12.73;;;15.70;99.90;;;;;;5025839;28;20818;-66
2022/04/14 02:21:02;;;;;;;17.23;12.63;;;15.70;99.90;;;;;;5000902;28;20725;-66
2022/04/14 02:23:28;;;;;;;16.90;13.27;;;15.70;99.90;;;;;;5018596;28;20641;-67
2022/04/14 02:25:54;;;;;;;19.23;13.37;;;15.70;99.90;;;;;;5016023;28;20240;-67
2022/04/14 02:28:19;;;;;;;18.27;11.87;;;15.70;99.90;;;;;;5020096;28;20221;-66
2022/04/14 02:30:46;;;;;;;15.40;11.73;;;15.70;99.90;;;;;;5020153;28;20217;-66
2022/04/14 02:33:11;;;;;;;16.97;12.83;;;15.70;99.90;;;;;;4994077;28;20217;-67
2022/04/14 02:35:37;;;;;;;17.83;12.77;;;15.70;99.90;;;;;;5009273;28;21095;-66
2022/04/14 02:38:03;;;;;;;18.63;14.03;;;15.60;99.90;;;;;;5009444;28;20213;-66
2022/04/14 02:40:28;;;;;;;15.37;12.63;;;15.60;99.90;;;;;;5010674;28;20599;-68
2022/04/14 02:42:56;;;;;;;20.67;13.77;;;15.60;99.90;;;;;;5011220;28;20283;-66
2022/04/14 02:45:23;;;;;;;16.03;11.70;;;15.50;99.90;;;;;;5007355;28;20216;-66
2022/04/14 02:47:49;;;;;;;20.20;14.00;;;15.50;99.90;;;;;;5023071;28;20460;-68
2022/04/14 02:50:15;;;;;;;23.17;12.83;;;15.50;99.90;;;;;;5007543;28;20467;-67
2022/04/14 02:52:42;;;;;;;19.97;12.73;;;15.50;99.90;;;;;;5010089;28;20499;-67
2022/04/14 02:55:08;;;;;;;17.73;13.00;;;15.50;99.90;;;;;;5024038;28;20463;-66
2022/04/14 02:57:34;;;;;;;16.07;11.27;;;15.50;99.90;;;;;;5017081;28;20842;-64
2022/04/14 03:00:00;;;;;;;17.47;13.17;;;15.50;99.90;;;;;;5019768;28;20944;-66
2022/04/14 03:02:26;;;;;;;22.57;11.40;;;15.50;99.90;;;;;;5014533;28;20551;-66
2022/04/14 03:04:53;;;;;;;17.63;12.73;;;15.40;99.90;;;;;;5017778;28;20538;-65
2022/04/14 03:07:20;;;;;;;21.23;14.07;;;15.40;99.90;;;;;;5023396;28;20467;-65
2022/04/14 03:09:46;;;;;;;20.10;13.17;;;15.40;99.90;;;;;;5020389;28;20466;-66
2022/04/14 03:12:12;;;;;;;18.23;12.47;;;15.40;99.90;;;;;;5009038;28;20488;-66
2022/04/14 03:14:38;;;;;;;22.67;13.40;;;15.40;99.90;;;;;;5015166;28;20602;-66
2022/04/14 03:17:04;;;;;;;19.80;12.97;;;15.40;99.90;;;;;;5010776;28;20644;-68
2022/04/14 03:19:30;;;;;;;19.73;13.10;;;15.40;99.90;;;;;;5008178;28;20464;-68
2022/04/14 03:21:58;;;;;;;20.70;13.07;;;15.40;99.90;;;;;;5004399;28;20827;-66
2022/04/14 03:24:23;;;;;;;22.20;12.40;;;15.40;99.90;;;;;;5011859;28;20228;-66
2022/04/14 03:26:49;;;;;;;17.60;12.90;;;15.40;99.90;;;;;;5013793;28;20451;-65
2022/04/14 03:29:15;;;;;;;39.03;22.67;;;15.40;99.90;;;;;;5012590;28;20244;-66
2022/04/14 03:31:40;;;;;;;28.00;18.67;;;15.40;99.90;;;;;;5007332;28;20224;-65
2022/04/14 03:34:06;;;;;;;24.90;16.53;;;15.40;99.90;;;;;;5020702;28;20288;-66
2022/04/14 03:36:32;;;;;;;20.07;14.17;;;15.40;99.90;;;;;;5020257;28;20812;-66
2022/04/14 03:38:57;;;;;;;24.63;14.20;;;15.30;99.90;;;;;;5012293;28;20224;-68
2022/04/14 03:41:24;;;;;;;23.40;15.10;;;15.30;99.90;;;;;;5028105;28;20232;-68
2022/04/14 03:43:50;;;;;;;18.97;14.03;;;15.30;99.90;;;;;;4999831;28;20232;-67
2022/04/14 03:46:16;;;;;;;19.07;13.90;;;15.30;99.90;;;;;;5007379;28;20465;-68
2022/04/14 03:48:45;;;;;;;19.80;13.90;;;15.20;99.90;;;;;;4992099;28;20286;-66
2022/04/14 03:51:12;;;;;;;19.17;13.77;;;15.20;99.90;;;;;;5008419;28;20472;-66
2022/04/14 03:53:38;;;;;;;21.67;12.70;;;15.20;99.90;;;;;;5007626;28;20456;-66
2022/04/14 03:56:04;;;;;;;20.30;13.87;;;15.20;99.90;;;;;;5020411;28;20999;-68
2022/04/14 03:58:29;;;;;;;19.97;14.10;;;15.30;99.90;;;;;;5010033;28;20228;-69
2022/04/14 04:00:55;;;;;;;20.77;13.67;;;15.30;99.90;;;;;;5018213;28;20725;-66
2022/04/14 04:03:20;;;;;;;20.47;13.00;;;15.30;99.90;;;;;;5008421;28;20243;-67
2022/04/14 04:05:46;;;;;;;20.20;13.97;;;15.20;99.90;;;;;;5007360;28;20315;-67
2022/04/14 04:08:12;;;;;;;19.30;12.83;;;15.20;99.90;;;;;;5010572;28;20221;-70
2022/04/14 04:10:37;;;;;;;20.63;14.17;;;15.20;99.90;;;;;;4995468;28;20252;-67
2022/04/14 04:13:03;;;;;;;18.50;13.50;;;15.20;99.90;;;;;;5025314;28;20212;-67
2022/04/14 04:15:29;;;;;;;17.20;12.87;;;15.20;99.90;;;;;;5007773;28;20224;-66
2022/04/14 04:17:54;;;;;;;18.47;12.63;;;15.20;99.90;;;;;;5018360;28;20229;-67
2022/04/14 04:20:20;;;;;;;15.97;12.43;;;15.20;99.90;;;;;;5021080;28;20228;-68
2022/04/14 04:22:46;;;;;;;18.13;11.77;;;15.20;99.90;;;;;;5025959;28;20259;-64
2022/04/14 04:25:12;;;;;;;18.93;13.40;;;15.20;99.90;;;;;;5026648;28;20451;-67
2022/04/14 04:27:38;;;;;;;23.23;13.87;;;15.10;99.90;;;;;;5009246;28;20471;-66
2022/04/14 04:30:06;;;;;;;19.83;13.67;;;15.10;99.90;;;;;;5021701;28;20213;-70
2022/04/14 04:32:33;;;;;;;19.40;13.20;;;15.10;99.90;;;;;;5027367;28;20554;-69
2022/04/14 04:35:03;;;;;;;18.60;13.73;;;15.10;99.90;;;;;;5025183;28;20522;-71
2022/04/14 04:37:29;;;;;;;18.27;13.17;;;15.10;99.90;;;;;;4990891;28;20468;-70
2022/04/14 04:39:55;;;;;;;20.37;13.77;;;15.10;99.90;;;;;;5020062;28;21026;-70
2022/04/14 04:42:21;;;;;;;20.83;14.37;;;15.00;99.90;;;;;;5001378;28;20563;-70
2022/04/14 04:44:47;;;;;;;24.83;14.00;;;15.00;99.90;;;;;;5004135;28;20532;-66
2022/04/14 04:47:12;;;;;;;17.47;12.50;;;15.00;99.90;;;;;;5008363;28;20228;-68
2022/04/14 04:49:38;;;;;;;17.00;12.40;;;15.00;99.90;;;;;;5010909;28;20221;-65
2022/04/14 04:52:04;;;;;;;15.60;12.10;;;14.90;99.90;;;;;;5012057;28;20221;-69
2022/04/14 04:54:30;;;;;;;19.43;12.83;;;14.90;99.90;;;;;;5006411;28;20233;-72
2022/04/14 04:56:55;;;;;;;20.97;12.63;;;14.90;99.90;;;;;;5018150;28;20530;-70
2022/04/14 04:59:21;;;;;;;16.30;12.10;;;14.80;99.90;;;;;;5017464;28;20217;-71
2022/04/14 05:01:47;;;;;;;19.77;13.73;;;14.80;99.90;;;;;;5010036;28;20282;-69
2022/04/14 05:04:12;;;;;;;19.37;12.60;;;14.80;99.90;;;;;;4991621;28;20214;-69
2022/04/14 05:06:38;;;;;;;17.67;12.57;;;14.70;99.90;;;;;;4995051;28;20224;-69
2022/04/14 05:09:05;;;;;;;19.03;14.10;;;14.80;99.90;;;;;;5009607;28;20623;-69
2022/04/14 05:11:31;;;;;;;20.20;13.07;;;14.80;99.90;;;;;;5003392;28;20463;-69
2022/04/14 05:13:57;;;;;;;24.67;15.60;;;14.80;99.90;;;;;;5013690;28;20808;-69
2022/04/14 05:16:22;;;;;;;19.73;14.83;;;14.80;99.90;;;;;;5023661;28;20300;-69
2022/04/14 05:18:49;;;;;;;19.67;13.13;;;14.80;99.90;;;;;;5015744;28;20224;-68
2022/04/14 05:21:16;;;;;;;22.57;14.57;;;14.90;99.90;;;;;;5010626;28;20229;-73
2022/04/14 05:23:42;;;;;;;20.30;14.40;;;14.80;99.90;;;;;;5011152;28;20475;-69
2022/04/14 05:26:07;;;;;;;22.13;13.80;;;14.80;99.90;;;;;;5010617;28;20972;-69
2022/04/14 05:28:33;;;;;;;21.40;14.30;;;14.90;99.90;;;;;;5006480;28;20355;-69
2022/04/14 05:31:00;;;;;;;22.43;13.63;;;14.90;99.90;;;;;;5010303;28;20304;-70
2022/04/14 05:33:25;;;;;;;24.03;15.37;;;14.90;99.90;;;;;;5010201;28;20232;-73
2022/04/14 05:35:51;;;;;;;21.67;14.77;;;14.90;99.90;;;;;;5016461;28;20439;-71
2022/04/14 05:38:17;;;;;;;23.80;15.23;;;14.90;99.90;;;;;;5010639;28;20592;-70
2022/04/14 05:40:45;;;;;;;24.60;14.50;;;14.90;99.90;;;;;;5018528;28;20618;-70
2022/04/14 05:43:17;;;;;;;26.00;14.40;;;14.80;99.90;;;;;;5028479;28;20299;-70
2022/04/14 05:45:44;;;;;;;22.40;14.67;;;14.90;99.90;;;;;;5015915;28;20510;-71
2022/04/14 05:48:19;;;;;;;28.40;15.13;;;14.90;99.90;;;;;;5019327;28;20992;-70
2022/04/14 05:50:46;;;;;;;21.30;13.57;;;14.90;99.90;;;;;;5012892;28;20486;-69
2022/04/14 05:53:12;;;;;;;20.00;13.50;;;14.90;99.90;;;;;;4994166;28;20470;-70
2022/04/14 05:55:40;;;;;;;20.03;13.33;;;14.90;99.90;;;;;;5017668;28;20457;-70
2022/04/14 05:58:07;;;;;;;20.37;12.80;;;14.90;99.90;;;;;;4991010;28;20461;-69
2022/04/14 06:00:34;;;;;;;18.87;13.33;;;14.90;99.90;;;;;;5012804;28;20472;-70
2022/04/14 06:03:01;;;;;;;19.63;12.43;;;14.90;99.90;;;;;;5017544;28;20542;-69
2022/04/14 06:05:30;;;;;;;21.40;14.40;;;14.90;99.90;;;;;;5008327;28;20603;-69
2022/04/14 06:07:56;;;;;;;18.40;13.00;;;14.90;99.90;;;;;;5010986;28;20546;-69
2022/04/14 06:10:23;;;;;;;19.97;13.53;;;14.90;99.90;;;;;;5009551;28;20530;-68
2022/04/14 06:12:49;;;;;;;21.47;14.67;;;14.90;99.90;;;;;;5022449;28;20228;-69
2022/04/14 06:15:16;;;;;;;20.80;14.00;;;14.90;99.90;;;;;;5015626;28;20471;-68
2022/04/14 06:17:42;;;;;;;20.13;13.70;;;15.00;99.90;;;;;;5007971;28;20634;-70
2022/04/14 06:20:09;;;;;;;26.93;15.00;;;15.00;99.90;;;;;;5020413;28;20475;-70
2022/04/14 06:22:42;;;;;;;24.80;15.80;;;14.90;99.90;;;;;;5014265;28;20460;-69
2022/04/14 06:25:17;;;;;;;27.67;16.03;;;15.00;99.90;;;;;;5003916;28;20468;-69
2022/04/14 06:27:46;;;;;;;22.93;14.70;;;15.00;99.90;;;;;;5021304;28;20451;-69
2022/04/14 06:30:14;;;;;;;27.03;15.70;;;14.90;99.90;;;;;;5025661;28;20464;-70
2022/04/14 06:32:41;;;;;;;20.27;13.97;;;14.90;99.90;;;;;;5003890;28;20444;-73
2022/04/14 06:35:13;;;;;;;23.50;14.80;;;14.90;99.90;;;;;;5024587;28;20456;-70
2022/04/14 06:37:39;;;;;;;23.60;13.37;;;15.00;99.90;;;;;;5022929;28;21022;-69
2022/04/14 06:40:05;;;;;;;22.23;14.53;;;14.90;99.90;;;;;;5011021;28;20479;-70
2022/04/14 06:42:32;;;;;;;20.53;13.50;;;14.90;99.90;;;;;;5018388;28;20217;-69
2022/04/14 06:44:59;;;;;;;20.27;15.13;;;15.00;99.90;;;;;;5009247;28;20539;-70
2022/04/14 06:47:26;;;;;;;23.67;14.13;;;15.00;99.90;;;;;;5025097;28;20467;-68
2022/04/14 06:49:52;;;;;;;27.20;15.03;;;15.00;99.90;;;;;;5017938;28;20452;-70
2022/04/14 06:52:17;;;;;;;23.17;14.17;;;15.00;99.90;;;;;;5007812;28;20467;-69
2022/04/14 06:54:43;;;;;;;22.97;13.70;;;14.90;99.90;;;;;;5012409;28;20217;-69
2022/04/14 06:57:09;;;;;;;30.67;15.40;;;14.90;99.90;;;;;;5008123;28;20316;-71
2022/04/14 06:59:35;;;;;;;20.90;13.70;;;14.90;99.90;;;;;;5007024;28;20535;-69
2022/04/14 07:02:01;;;;;;;23.33;15.10;;;14.90;99.90;;;;;;5009045;28;20217;-71
2022/04/14 07:04:27;;;;;;;21.20;14.13;;;14.90;99.90;;;;;;5006867;28;20217;-70
2022/04/14 07:06:54;;;;;;;26.50;15.80;;;14.90;99.90;;;;;;5001360;28;20221;-70
2022/04/14 07:09:20;;;;;;;24.77;14.57;;;14.90;99.90;;;;;;5009336;28;20463;-68
2022/04/14 07:11:46;;;;;;;21.63;14.30;;;14.90;99.90;;;;;;5013124;28;20470;-70
2022/04/14 07:14:14;;;;;;;23.20;13.27;;;14.90;99.90;;;;;;5022756;28;20452;-70
2022/04/14 07:16:43;;;;;;;20.57;12.60;;;14.90;99.90;;;;;;5015143;28;20541;-71
2022/04/14 07:19:09;;;;;;;20.07;13.20;;;14.90;99.90;;;;;;5019577;28;20678;-69
2022/04/14 07:21:34;;;;;;;19.07;13.00;;;14.90;99.90;;;;;;5019873;28;20479;-70
2022/04/14 07:24:00;;;;;;;21.63;14.07;;;15.00;99.90;;;;;;5026455;28;20227;-69
2022/04/14 07:26:25;;;;;;;25.00;15.00;;;14.90;99.90;;;;;;5019328;28;20228;-70
2022/04/14 07:28:51;;;;;;;19.40;12.57;;;15.00;99.90;;;;;;5011359;28;20304;-69
2022/04/14 07:31:17;;;;;;;19.83;12.50;;;15.00;99.90;;;;;;5008785;28;20251;-68
2022/04/14 07:33:42;;;;;;;26.03;14.93;;;15.00;99.90;;;;;;5011514;28;20312;-68
2022/04/14 07:36:08;;;;;;;20.27;13.70;;;15.00;99.90;;;;;;5022665;28;20244;-67
2022/04/14 07:38:34;;;;;;;20.80;13.50;;;15.10;99.90;;;;;;5028141;28;20239;-67
2022/04/14 07:41:05;;;;;;;20.37;13.10;;;15.10;99.90;;;;;;5015520;28;20345;-68
2022/04/14 07:43:32;;;;;;;22.07;13.40;;;15.10;99.90;;;;;;5005885;28;20465;-69
2022/04/14 07:45:57;;;;;;;22.87;13.40;;;15.20;99.90;;;;;;5009922;28;20527;-68
2022/04/14 07:48:23;;;;;;;20.93;11.90;;;15.30;99.90;;;;;;5014012;28;20547;-66
2022/04/14 07:50:49;;;;;;;16.23;11.90;;;15.30;99.90;;;;;;5013745;28;20672;-67
2022/04/14 07:53:15;;;;;;;20.20;12.33;;;15.30;99.90;;;;;;5011942;28;20228;-66
2022/04/14 07:55:41;;;;;;;17.73;12.87;;;15.40;99.90;;;;;;4992562;28;20551;-69
2022/04/14 07:58:07;;;;;;;19.60;13.73;;;15.40;99.90;;;;;;4994409;28;20231;-67
2022/04/14 08:00:37;;;;;;;15.10;10.73;;;15.40;99.90;;;;;;5003017;28;20591;-68
2022/04/14 08:03:04;;;;;;;19.93;12.60;;;15.50;99.90;;;;;;5024108;28;20455;-67
2022/04/14 08:05:41;;;;;;;20.23;13.57;;;15.50;99.90;;;;;;5023503;28;20479;-67
2022/04/14 08:08:10;;;;;;;17.20;11.50;;;15.50;99.90;;;;;;5010305;28;20960;-68
2022/04/14 08:10:36;;;;;;;28.80;14.77;;;15.50;99.90;;;;;;4991826;28;20469;-67
2022/04/14 08:13:02;;;;;;;19.83;12.93;;;15.50;99.90;;;;;;5012603;28;21029;-68
2022/04/14 08:15:30;;;;;;;21.07;14.10;;;15.60;99.90;;;;;;5021155;28;20236;-68
2022/04/14 08:17:56;;;;;;;20.23;13.77;;;15.60;99.90;;;;;;5009611;28;20223;-68
2022/04/14 08:20:21;;;;;;;21.47;14.93;;;15.60;99.90;;;;;;5010137;28;20557;-66
2022/04/14 08:22:50;;;;;;;22.77;15.30;;;15.60;99.90;;;;;;5012306;28;20221;-67
2022/04/14 08:25:18;;;;;;;18.77;12.40;;;15.70;99.90;;;;;;5012947;28;20217;-66
2022/04/14 08:27:44;;;;;;;20.40;13.67;;;15.70;99.90;;;;;;4994326;28;20440;-67
2022/04/14 08:30:10;;;;;;;25.47;14.50;;;15.70;99.90;;;;;;5011958;28;20975;-68
2022/04/14 08:32:37;;;;;;;18.97;13.40;;;15.70;99.90;;;;;;5004776;28;20248;-66
2022/04/14 08:35:04;;;;;;;22.13;13.23;;;15.70;99.90;;;;;;4999914;28;20501;-67
2022/04/14 08:37:30;;;;;;;22.60;14.17;;;15.70;99.90;;;;;;5012470;28;20848;-67
2022/04/14 08:39:57;;;;;;;19.50;13.97;;;15.70;99.90;;;;;;4992090;28;20538;-67
2022/04/14 08:42:29;;;;;;;20.60;12.93;;;15.70;99.90;;;;;;4993996;28;20214;-67
2022/04/14 08:45:01;;;;;;;18.20;12.33;;;15.80;99.90;;;;;;5011748;28;20784;-67
2022/04/14 08:47:29;;;;;;;21.47;13.27;;;15.90;99.90;;;;;;5006979;28;20452;-68
2022/04/14 08:49:59;;;;;;;20.43;12.93;;;15.90;99.90;;;;;;5013169;28;20458;-67
2022/04/14 08:52:26;;;;;;;18.83;14.47;;;15.90;99.90;;;;;;5011082;28;20455;-67
2022/04/14 08:54:55;;;;;;;24.27;13.80;;;15.90;99.90;;;;;;5015319;28;20453;-67
2022/04/14 08:57:25;;;;;;;19.57;13.77;;;16.00;99.90;;;;;;5007767;28;20952;-69
2022/04/14 08:59:51;;;;;;;22.97;14.50;;;16.00;99.90;;;;;;5014244;28;20475;-67
2022/04/14 09:02:23;;;;;;;20.67;14.17;;;16.00;99.90;;;;;;5013615;28;20460;-67
2022/04/14 09:04:49;;;;;;;22.17;14.20;;;16.00;99.90;;;;;;5024403;28;20508;-65
2022/04/14 09:07:15;;;;;;;23.20;14.93;;;16.00;99.90;;;;;;5021723;28;20460;-66
2022/04/14 09:09:41;;;;;;;22.33;15.50;;;16.10;99.90;;;;;;5012238;28;20456;-71
2022/04/14 09:12:09;;;;;;;20.87;13.37;;;16.00;99.90;;;;;;5016443;28;20466;-68
2022/04/14 09:14:35;;;;;;;20.00;13.90;;;16.10;99.90;;;;;;5008444;28;20451;-69
2022/04/14 09:17:02;;;;;;;23.70;13.00;;;16.20;99.90;;;;;;5011112;28;20499;-69
2022/04/14 09:19:32;;;;;;;20.23;13.00;;;16.20;99.90;;;;;;5016032;28;20219;-69
2022/04/14 09:22:00;;;;;;;19.73;13.67;;;16.30;99.90;;;;;;5012857;28;20464;-71
2022/04/14 09:24:50;;;;;;;26.53;15.97;;;16.30;99.90;;;;;;5016445;28;20444;-68
2022/04/14 09:27:29;;;;;;;20.40;13.77;;;16.40;99.90;;;;;;5031160;28;20487;-69
2022/04/14 09:29:57;;;;;;;18.57;13.70;;;16.40;99.90;;;;;;4993005;28;20456;-69
2022/04/14 09:32:34;;;;;;;18.63;11.90;;;16.40;99.90;;;;;;5009458;28;20460;-70
2022/04/14 09:35:23;;;;;;;21.17;12.17;;;16.50;99.90;;;;;;5001228;28;20459;-69
2022/04/14 09:38:07;;;;;;;22.40;12.90;;;16.50;99.90;;;;;;5025576;28;20456;-68
2022/04/14 09:40:33;;;;;;;15.90;11.53;;;16.60;99.90;;;;;;5027507;28;20483;-69
2022/04/14 09:42:59;;;;;;;18.67;12.40;;;16.60;99.90;;;;;;5018482;28;20451;-71
2022/04/14 09:45:26;;;;;;;15.20;11.27;;;16.60;99.90;;;;;;5013848;28;20828;-74
2022/04/14 09:48:05;;;;;;;14.87;11.50;;;16.60;99.90;;;;;;5021152;28;20221;-70
2022/04/14 09:50:39;;;;;;;22.40;12.50;;;16.60;99.90;;;;;;5025933;28;20462;-69
2022/04/14 09:53:06;;;;;;;15.70;11.77;;;16.60;99.90;;;;;;5008777;28;20475;-68
2022/04/14 09:55:33;;;;;;;21.40;11.70;;;16.70;99.90;;;;;;5009793;28;20467;-68
2022/04/14 09:58:09;;;;;;;18.37;11.90;;;16.80;99.90;;;;;;5011173;28;20452;-69
2022/04/14 10:00:38;;;;;;;19.07;12.10;;;16.80;99.90;;;;;;5014695;28;20483;-69
2022/04/14 10:03:08;;;;;;;16.00;11.87;;;16.80;99.90;;;;;;5011227;28;20488;-72
2022/04/14 10:05:35;;;;;;;17.00;11.10;;;16.80;99.90;;;;;;4990773;28;20443;-72
2022/04/14 10:08:00;;;;;;;21.87;12.37;;;16.90;99.90;;;;;;4998399;28;21090;-69
2022/04/14 10:10:26;;;;;;;16.23;11.27;;;16.80;99.90;;;;;;5025080;28;20546;-69
2022/04/14 10:13:03;;;;;;;14.40;9.80;;;16.90;99.90;;;;;;5017222;28;20224;-71
2022/04/14 10:15:35;;;;;;;15.87;10.47;;;16.90;99.90;;;;;;5018302;28;20220;-69
2022/04/14 10:18:06;;;;;;;14.10;10.70;;;16.90;99.90;;;;;;5006356;28;20464;-68
2022/04/14 10:20:33;;;;;;;16.73;10.60;;;17.00;99.90;;;;;;5024717;28;21029;-73
2022/04/14 10:23:00;;;;;;;12.03;9.17;;;17.00;99.90;;;;;;5028573;28;20493;-70
2022/04/14 10:25:27;;;;;;;13.77;10.20;;;17.00;99.90;;;;;;5029429;28;20459;-68
2022/04/14 10:27:56;;;;;;;11.57;9.63;;;17.10;99.90;;;;;;5024422;28;20539;-71
2022/04/14 10:30:23;;;;;;;14.03;10.23;;;17.10;99.90;;;;;;5023021;28;20465;-69
2022/04/14 10:32:49;;;;;;;12.67;9.20;;;17.20;99.90;;;;;;5011477;28;20460;-69
2022/04/14 10:35:15;;;;;;;17.07;9.57;;;17.20;99.90;;;;;;5008017;28;20463;-70
2022/04/14 10:38:21;;;;;;;14.17;9.87;;;17.30;99.90;;;;;;5014606;28;20228;-72
2022/04/14 10:41:14;;;;;;;18.37;8.90;;;17.30;99.90;;;;;;5028356;28;20470;-68
2022/04/14 10:43:45;;;;;;;11.27;8.03;;;17.30;99.90;;;;;;4999554;28;20467;-70
2022/04/14 10:46:14;;;;;;;11.53;6.57;;;17.30;99.90;;;;;;5003774;28;20533;-69
2022/04/14 10:48:41;;;;;;;13.73;9.50;;;17.40;99.90;;;;;;5012353;28;20474;-69
2022/04/14 10:51:32;;;;;;;13.30;9.37;;;17.40;99.90;;;;;;5013003;28;20590;-71
2022/04/14 10:54:09;;;;;;;15.37;9.37;;;17.40;99.90;;;;;;5012052;28;20865;-70
2022/04/14 10:56:34;;;;;;;17.13;9.63;;;17.50;99.90;;;;;;4998105;28;20837;-70
2022/04/14 10:59:04;;;;;;;12.37;8.77;;;17.60;99.90;;;;;;5019833;28;21033;-71
2022/04/14 11:01:45;;;;;;;10.30;7.97;;;17.70;99.90;;;;;;5031180;28;20268;-70
2022/04/14 11:04:53;;;;;;;11.33;7.40;;;17.80;99.90;;;;;;5018272;28;20466;-70
2022/04/14 11:07:21;;;;;;;13.07;7.77;;;17.80;99.90;;;;;;5010375;28;20468;-68
2022/04/14 11:09:54;;;;;;;12.30;6.53;;;17.90;99.90;;;;;;5015647;28;20455;-71
2022/04/14 11:12:29;;;;;;;8.20;6.80;;;18.10;99.90;;;;;;5013839;28;21057;-68
2022/04/14 11:15:04;;;;;;;9.53;7.67;;;18.20;99.90;;;;;;5009295;28;20827;-69
2022/04/14 11:17:38;;;;;;;9.13;7.30;;;18.20;99.90;;;;;;5009104;28;20546;-69
2022/04/14 11:20:24;;;;;;;11.73;8.70;;;18.20;99.90;;;;;;4996055;28;20468;-69
2022/04/14 11:23:13;;;;;;;10.60;7.73;;;18.20;99.90;;;;;;5010169;28;21054;-69
2022/04/14 11:25:42;;;;;;;10.10;7.80;;;18.20;99.90;;;;;;5016546;28;20528;-71
2022/04/14 11:28:30;;;;;;;10.97;7.40;;;18.30;99.90;;;;;;5016844;28;20444;-69
2022/04/14 11:31:01;;;;;;;15.10;7.20;;;18.30;99.90;;;;;;5013802;28;20456;-69
2022/04/14 11:33:30;;;;;;;8.20;6.40;;;18.40;99.90;;;;;;5029090;28;20449;-70
2022/04/14 11:36:25;;;;;;;9.27;7.40;;;18.60;99.90;;;;;;5010284;28;20479;-69
2022/04/14 11:38:59;;;;;;;8.57;7.20;;;18.70;99.90;;;;;;5008524;28;20539;-70
2022/04/14 11:41:46;;;;;;;9.07;6.60;;;18.70;99.90;;;;;;5013001;28;20482;-71
2022/04/14 11:44:13;;;;;;;9.20;5.90;;;18.80;99.90;;;;;;5007556;28;20801;-69
2022/04/14 11:46:52;;;;;;;8.40;6.53;;;18.80;99.90;;;;;;5008711;28;20468;-70
2022/04/14 11:49:23;;;;;;;9.97;6.70;;;18.90;99.90;;;;;;5014320;28;20484;-71
2022/04/14 11:51:50;;;;;;;8.50;5.83;;;18.90;99.90;;;;;;5000644;28;20444;-69
2022/04/14 11:54:30;;;;;;;9.90;5.50;;;19.00;99.90;;;;;;5009988;28;20459;-71
2022/04/14 11:57:06;;;;;;;8.53;6.67;;;19.10;99.90;;;;;;5011882;28;20456;-70
2022/04/14 11:59:44;;;;;;;6.40;5.80;;;19.20;99.90;;;;;;5011933;28;20460;-70
2022/04/14 12:02:18;;;;;;;7.97;6.93;;;19.20;99.90;;;;;;5002483;28;20477;-71
2022/04/14 12:04:52;;;;;;;10.73;6.97;;;19.20;99.90;;;;;;4994108;28;20575;-71
2022/04/14 12:07:20;;;;;;;9.93;7.27;;;19.20;99.90;;;;;;5020365;28;21002;-70
2022/04/14 12:09:46;;;;;;;7.40;5.93;;;19.10;99.90;;;;;;5021298;28;20504;-72
2022/04/14 12:12:17;;;;;;;9.53;6.40;;;19.20;99.90;;;;;;5018996;28;20456;-69
2022/04/14 12:14:44;;;;;;;7.40;5.73;;;19.20;99.90;;;;;;5004993;28;20445;-70
2022/04/14 12:17:10;;;;;;;8.50;5.20;;;19.30;99.90;;;;;;5027551;28;20450;-69
2022/04/14 12:19:43;;;;;;;5.90;5.30;;;19.40;99.90;;;;;;5022674;28;20444;-69
2022/04/14 12:22:09;;;;;;;7.90;5.50;;;19.50;99.90;;;;;;5020079;28;20467;-69
2022/04/14 12:24:35;;;;;;;6.10;4.77;;;19.50;99.90;;;;;;5030682;28;20454;-72
2022/04/14 12:27:01;;;;;;;6.00;5.27;;;19.60;99.90;;;;;;5012271;28;20452;-69
2022/04/14 12:29:27;;;;;;;6.00;4.90;;;19.60;99.90;;;;;;5013589;28;20325;-70
2022/04/14 12:32:07;;;;;;;7.67;5.40;;;19.70;99.90;;;;;;5011244;28;20218;-70
2022/04/14 12:34:33;;;;;;;7.00;5.83;;;19.70;99.90;;;;;;4995141;28;20457;-71
2022/04/14 12:37:18;;;;;;;5.40;4.90;;;19.70;99.90;;;;;;5020605;28;20455;-69